Tujunga, CA (91043)

5:22 AM PDT on July 29, 2016 (GMT -0700)
Tujunga | | Change Station

Elev 1654 ft 34.26 °N, 118.30 °W | Updated 6 minutes ago

Clear
Clear
70.5 °F
Feels Like 76 °F
N
0.0
Wind Variable Wind from ESE

Today
High -- | Low -- °F
--% Chance of Precip.
Yesterday
High -- | Low -- °F
Precip. -- in
Pressure 29.78 in
Visibility 10.0 miles
Clouds Clear
Heat Index 76 °F
Dew Point 56 °F
Humidity 59%
Rainfall 0.00 in
Snow Depth Not available.
6:02 AM 7:56 PM
Waning Crescent, 22% visible
METAR KBUR 291153Z AUTO 00000KT 10SM CLR 23/14 A2983 RMK AO2 SLP085 T02280144 10250 20228 58005 TSNO
Pressure 29.78 in
Visibility 10.0 miles
Clouds Clear
Heat Index 76 °F
Dew Point 56 °F
Humidity 59%
Rainfall 0.00 in
Snow Depth Not available.
6:02 AM 7:56 PM
Waning Crescent, 22% visible
METAR KBUR 291153Z AUTO 00000KT 10SM CLR 23/14 A2983 RMK AO2 SLP085 T02280144 10250 20228 58005 TSNO

10-Day Weather Forecast

Almanac

Astronomy

Jul. 29, 2016 Rise Set
Actual Time
Civil Twilight
Nautical Twilight
Astronomical Twilight
Moon
Length of Visible Light
Length of Day
Tomorrow will be .
, % of the Moon is Illuminated

Today's Extremes

State Highs State Lows

Community

WunderPhotos

Upload Photos

1,928,335 photos uploaded!

WunderBlog® & News

Nearby

Air Quality

  Air Quality AQ Index Pollutant
Not available.

Snow Depth

Station Depth Elevation

Earthquake Activity

City Distance Mag. Time & Date
Minimum magnitude displayed is 2.5.

Coastal Water Temperatures

Place Temperature

Stations

Nearby Weather Stations

Station Location Temp. Windchill Dew Point Humidity Wind Precip. Elev Updated Type
                   

Watches & Warnings

There are currently no watches in effect.